sensor_id;sensor_type;location;lat;lon;timestamp;temperature;humidity
20670;DHT22;10494;50.868;4.180;2022-12-07T00:01:06;5.60;99.90
20670;DHT22;10494;50.868;4.180;2022-12-07T00:03:32;5.60;99.90
20670;DHT22;10494;50.868;4.180;2022-12-07T00:05:59;5.50;99.90
20670;DHT22;10494;50.868;4.180;2022-12-07T00:08:24;5.40;99.90
20670;DHT22;10494;50.868;4.180;2022-12-07T00:10:50;5.40;99.90
20670;DHT22;10494;50.868;4.180;2022-12-07T00:13:16;5.30;99.90
20670;DHT22;10494;50.868;4.180;2022-12-07T00:15:41;5.30;99.90
20670;DHT22;10494;50.868;4.180;2022-12-07T00:18:07;5.30;99.90
20670;DHT22;10494;50.868;4.180;2022-12-07T00:20:32;5.20;99.90
20670;DHT22;10494;50.868;4.180;2022-12-07T00:22:58;5.20;99.90
20670;DHT22;10494;50.868;4.180;2022-12-07T00:25:24;5.20;99.90
20670;DHT22;10494;50.868;4.180;2022-12-07T00:27:50;5.20;99.90
20670;DHT22;10494;50.868;4.180;2022-12-07T00:30:15;5.20;99.90
20670;DHT22;10494;50.868;4.180;2022-12-07T00:32:41;5.20;99.90
20670;DHT22;10494;50.868;4.180;2022-12-07T00:35:07;5.20;99.90
20670;DHT22;10494;50.868;4.180;2022-12-07T00:37:32;5.20;99.90
20670;DHT22;10494;50.868;4.180;2022-12-07T00:39:58;5.20;99.90
20670;DHT22;10494;50.868;4.180;2022-12-07T00:42:23;5.20;99.90
20670;DHT22;10494;50.868;4.180;2022-12-07T00:44:49;5.10;99.90
20670;DHT22;10494;50.868;4.180;2022-12-07T00:47:15;5.10;99.90
20670;DHT22;10494;50.868;4.180;2022-12-07T00:49:40;5.00;99.90
20670;DHT22;10494;50.868;4.180;2022-12-07T00:52:06;5.00;99.90
20670;DHT22;10494;50.868;4.180;2022-12-07T00:54:31;5.00;99.90
20670;DHT22;10494;50.868;4.180;2022-12-07T00:56:57;4.90;99.90
20670;DHT22;10494;50.868;4.180;2022-12-07T00:59:22;4.90;99.90
20670;DHT22;10494;50.868;4.180;2022-12-07T01:01:48;4.90;99.90
20670;DHT22;10494;50.868;4.180;2022-12-07T01:04:14;4.90;99.90
20670;DHT22;10494;50.868;4.180;2022-12-07T01:06:39;4.90;99.90
20670;DHT22;10494;50.868;4.180;2022-12-07T01:09:05;4.90;99.90
20670;DHT22;10494;50.868;4.180;2022-12-07T01:11:31;4.80;99.90
20670;DHT22;10494;50.868;4.180;2022-12-07T01:13:58;4.80;99.90
20670;DHT22;10494;50.868;4.180;2022-12-07T01:16:28;4.80;99.90
20670;DHT22;10494;50.868;4.180;2022-12-07T01:18:55;4.70;99.90
20670;DHT22;10494;50.868;4.180;2022-12-07T01:21:29;4.80;99.90
20670;DHT22;10494;50.868;4.180;2022-12-07T01:23:57;4.70;99.90
20670;DHT22;10494;50.868;4.180;2022-12-07T01:26:23;4.70;99.90
20670;DHT22;10494;50.868;4.180;2022-12-07T01:28:50;4.70;99.90
20670;DHT22;10494;50.868;4.180;2022-12-07T01:31:18;4.60;99.90
20670;DHT22;10494;50.868;4.180;2022-12-07T01:33:49;4.60;99.90
20670;DHT22;10494;50.868;4.180;2022-12-07T01:36:21;4.60;99.90
20670;DHT22;10494;50.868;4.180;2022-12-07T01:38:51;4.70;99.90
20670;DHT22;10494;50.868;4.180;2022-12-07T01:41:18;4.70;99.90
20670;DHT22;10494;50.868;4.180;2022-12-07T01:46:31;4.90;99.90
20670;DHT22;10494;50.868;4.180;2022-12-07T01:48:56;4.90;99.90
20670;DHT22;10494;50.868;4.180;2022-12-07T01:51:22;4.90;99.90
20670;DHT22;10494;50.868;4.180;2022-12-07T01:53:48;4.90;99.90
20670;DHT22;10494;50.868;4.180;2022-12-07T01:56:18;4.90;99.90
20670;DHT22;10494;50.868;4.180;2022-12-07T01:58:44;4.90;99.90
20670;DHT22;10494;50.868;4.180;2022-12-07T02:01:10;5.00;99.90
20670;DHT22;10494;50.868;4.180;2022-12-07T02:03:42;4.90;99.90
20670;DHT22;10494;50.868;4.180;2022-12-07T02:06:10;4.80;99.90
20670;DHT22;10494;50.868;4.180;2022-12-07T02:08:36;4.50;99.90
20670;DHT22;10494;50.868;4.180;2022-12-07T02:11:03;4.60;99.90
20670;DHT22;10494;50.868;4.180;2022-12-07T02:13:35;4.60;99.90
20670;DHT22;10494;50.868;4.180;2022-12-07T02:21:51;4.60;99.90
20670;DHT22;10494;50.868;4.180;2022-12-07T02:32:39;4.10;99.90
20670;DHT22;10494;50.868;4.180;2022-12-07T02:35:18;4.20;99.90
20670;DHT22;10494;50.868;4.180;2022-12-07T02:40:43;4.40;99.90
20670;DHT22;10494;50.868;4.180;2022-12-07T02:43:24;4.50;99.90
20670;DHT22;10494;50.868;4.180;2022-12-07T02:45:52;4.50;99.90
20670;DHT22;10494;50.868;4.180;2022-12-07T02:48:19;4.40;99.90
20670;DHT22;10494;50.868;4.180;2022-12-07T02:50:49;4.30;99.90
20670;DHT22;10494;50.868;4.180;2022-12-07T02:58:50;4.20;99.90
20670;DHT22;10494;50.868;4.180;2022-12-07T03:01:28;4.10;99.90
20670;DHT22;10494;50.868;4.180;2022-12-07T03:07:01;4.10;99.90
20670;DHT22;10494;50.868;4.180;2022-12-07T03:09:41;4.10;99.90
20670;DHT22;10494;50.868;4.180;2022-12-07T03:12:16;4.00;99.90
20670;DHT22;10494;50.868;4.180;2022-12-07T03:14:56;4.00;99.90
20670;DHT22;10494;50.868;4.180;2022-12-07T03:17:27;4.00;99.90
20670;DHT22;10494;50.868;4.180;2022-12-07T03:19:58;4.00;99.90
20670;DHT22;10494;50.868;4.180;2022-12-07T03:22:25;3.90;99.90
20670;DHT22;10494;50.868;4.180;2022-12-07T03:24:57;3.90;99.90
20670;DHT22;10494;50.868;4.180;2022-12-07T03:27:26;3.90;99.90
20670;DHT22;10494;50.868;4.180;2022-12-07T03:30:02;3.80;99.90
20670;DHT22;10494;50.868;4.180;2022-12-07T03:32:36;3.70;99.90
20670;DHT22;10494;50.868;4.180;2022-12-07T03:35:20;3.70;99.90
20670;DHT22;10494;50.868;4.180;2022-12-07T03:43:16;3.90;99.90
20670;DHT22;10494;50.868;4.180;2022-12-07T03:45:45;3.90;99.90
20670;DHT22;10494;50.868;4.180;2022-12-07T03:51:11;3.90;99.90
20670;DHT22;10494;50.868;4.180;2022-12-07T03:53:46;3.60;99.90
20670;DHT22;10494;50.868;4.180;2022-12-07T03:56:16;3.50;99.90
20670;DHT22;10494;50.868;4.180;2022-12-07T03:58:42;3.50;99.90
20670;DHT22;10494;50.868;4.180;2022-12-07T04:01:08;3.40;99.90
20670;DHT22;10494;50.868;4.180;2022-12-07T04:03:34;3.50;99.90
20670;DHT22;10494;50.868;4.180;2022-12-07T04:05:59;3.50;99.90
20670;DHT22;10494;50.868;4.180;2022-12-07T04:08:25;3.50;99.90
20670;DHT22;10494;50.868;4.180;2022-12-07T04:10:51;3.40;99.90
20670;DHT22;10494;50.868;4.180;2022-12-07T04:13:17;3.40;99.90
20670;DHT22;10494;50.868;4.180;2022-12-07T04:15:42;3.40;99.90
20670;DHT22;10494;50.868;4.180;2022-12-07T04:18:08;3.40;99.90
20670;DHT22;10494;50.868;4.180;2022-12-07T04:20:33;3.30;99.90
20670;DHT22;10494;50.868;4.180;2022-12-07T04:22:59;3.30;99.90
20670;DHT22;10494;50.868;4.180;2022-12-07T04:25:25;3.40;99.90
20670;DHT22;10494;50.868;4.180;2022-12-07T04:27:50;3.40;99.90
20670;DHT22;10494;50.868;4.180;2022-12-07T04:30:16;3.50;99.90
20670;DHT22;10494;50.868;4.180;2022-12-07T04:32:42;3.50;99.90
20670;DHT22;10494;50.868;4.180;2022-12-07T04:35:08;3.50;99.90
20670;DHT22;10494;50.868;4.180;2022-12-07T04:37:33;3.30;99.90
20670;DHT22;10494;50.868;4.180;2022-12-07T04:39:59;3.10;99.90
20670;DHT22;10494;50.868;4.180;2022-12-07T04:42:24;2.90;99.90
20670;DHT22;10494;50.868;4.180;2022-12-07T04:44:50;2.80;99.90
20670;DHT22;10494;50.868;4.180;2022-12-07T04:47:16;2.90;99.90
20670;DHT22;10494;50.868;4.180;2022-12-07T04:49:42;3.00;99.90
20670;DHT22;10494;50.868;4.180;2022-12-07T04:52:07;3.00;99.90
20670;DHT22;10494;50.868;4.180;2022-12-07T04:54:33;3.10;99.90
20670;DHT22;10494;50.868;4.180;2022-12-07T04:56:58;3.10;99.90
20670;DHT22;10494;50.868;4.180;2022-12-07T04:59:24;3.20;99.90
20670;DHT22;10494;50.868;4.180;2022-12-07T05:01:50;3.10;99.90
20670;DHT22;10494;50.868;4.180;2022-12-07T05:04:15;3.00;99.90
20670;DHT22;10494;50.868;4.180;2022-12-07T05:06:43;2.90;99.90
20670;DHT22;10494;50.868;4.180;2022-12-07T05:09:08;2.90;99.90
20670;DHT22;10494;50.868;4.180;2022-12-07T05:11:34;2.90;99.90
20670;DHT22;10494;50.868;4.180;2022-12-07T05:14:20;2.80;99.90
20670;DHT22;10494;50.868;4.180;2022-12-07T05:16:47;2.80;99.90
20670;DHT22;10494;50.868;4.180;2022-12-07T05:19:14;2.80;99.90
20670;DHT22;10494;50.868;4.180;2022-12-07T05:21:40;2.70;99.90
20670;DHT22;10494;50.868;4.180;2022-12-07T05:24:07;2.80;99.90
20670;DHT22;10494;50.868;4.180;2022-12-07T05:26:33;2.80;99.90
20670;DHT22;10494;50.868;4.180;2022-12-07T05:28:59;2.90;99.90
20670;DHT22;10494;50.868;4.180;2022-12-07T05:31:26;2.90;99.90
20670;DHT22;10494;50.868;4.180;2022-12-07T05:33:52;3.00;99.90
20670;DHT22;10494;50.868;4.180;2022-12-07T05:36:18;3.00;99.90
20670;DHT22;10494;50.868;4.180;2022-12-07T05:38:44;3.10;99.90
20670;DHT22;10494;50.868;4.180;2022-12-07T05:41:12;3.10;99.90
20670;DHT22;10494;50.868;4.180;2022-12-07T05:43:59;3.10;99.90
20670;DHT22;10494;50.868;4.180;2022-12-07T05:46:25;3.10;99.90
20670;DHT22;10494;50.868;4.180;2022-12-07T05:48:51;3.10;99.90
20670;DHT22;10494;50.868;4.180;2022-12-07T05:51:16;3.10;99.90
20670;DHT22;10494;50.868;4.180;2022-12-07T05:53:42;3.20;99.90
20670;DHT22;10494;50.868;4.180;2022-12-07T05:56:08;3.20;99.90
20670;DHT22;10494;50.868;4.180;2022-12-07T05:58:33;3.30;99.90
20670;DHT22;10494;50.868;4.180;2022-12-07T06:01:17;3.40;99.90
20670;DHT22;10494;50.868;4.180;2022-12-07T06:03:43;3.40;99.90
20670;DHT22;10494;50.868;4.180;2022-12-07T06:06:10;3.50;99.90
20670;DHT22;10494;50.868;4.180;2022-12-07T06:08:35;3.50;99.90
20670;DHT22;10494;50.868;4.180;2022-12-07T06:11:01;3.60;99.90
20670;DHT22;10494;50.868;4.180;2022-12-07T06:13:45;3.60;99.90
20670;DHT22;10494;50.868;4.180;2022-12-07T06:16:10;3.60;99.90
20670;DHT22;10494;50.868;4.180;2022-12-07T06:18:36;3.70;99.90
20670;DHT22;10494;50.868;4.180;2022-12-07T06:21:01;3.70;99.90
20670;DHT22;10494;50.868;4.180;2022-12-07T06:23:27;3.70;99.90
20670;DHT22;10494;50.868;4.180;2022-12-07T06:25:52;3.70;99.90
20670;DHT22;10494;50.868;4.180;2022-12-07T06:28:18;3.80;99.90
20670;DHT22;10494;50.868;4.180;2022-12-07T06:30:44;3.80;99.90
20670;DHT22;10494;50.868;4.180;2022-12-07T06:33:09;3.80;99.90
20670;DHT22;10494;50.868;4.180;2022-12-07T06:35:35;3.80;99.90
20670;DHT22;10494;50.868;4.180;2022-12-07T06:38:00;3.70;99.90
20670;DHT22;10494;50.868;4.180;2022-12-07T06:40:26;3.70;99.90
20670;DHT22;10494;50.868;4.180;2022-12-07T06:42:52;3.70;99.90
20670;DHT22;10494;50.868;4.180;2022-12-07T06:45:17;3.70;99.90
20670;DHT22;10494;50.868;4.180;2022-12-07T06:47:43;3.70;99.90
20670;DHT22;10494;50.868;4.180;2022-12-07T06:50:09;3.80;99.90
20670;DHT22;10494;50.868;4.180;2022-12-07T06:52:34;3.80;99.90
20670;DHT22;10494;50.868;4.180;2022-12-07T06:55:00;3.80;99.90
20670;DHT22;10494;50.868;4.180;2022-12-07T06:57:26;3.80;99.90
20670;DHT22;10494;50.868;4.180;2022-12-07T06:59:51;3.90;99.90
20670;DHT22;10494;50.868;4.180;2022-12-07T07:02:17;3.40;99.90
20670;DHT22;10494;50.868;4.180;2022-12-07T07:04:43;2.90;99.90
20670;DHT22;10494;50.868;4.180;2022-12-07T07:07:08;2.70;99.90
20670;DHT22;10494;50.868;4.180;2022-12-07T07:09:34;2.80;99.90
20670;DHT22;10494;50.868;4.180;2022-12-07T07:12:00;3.10;99.90
20670;DHT22;10494;50.868;4.180;2022-12-07T07:14:25;3.40;99.90
20670;DHT22;10494;50.868;4.180;2022-12-07T07:16:51;3.50;99.90
20670;DHT22;10494;50.868;4.180;2022-12-07T07:19:16;3.60;99.90
20670;DHT22;10494;50.868;4.180;2022-12-07T07:21:42;3.70;99.90
20670;DHT22;10494;50.868;4.180;2022-12-07T07:24:08;3.90;99.90
20670;DHT22;10494;50.868;4.180;2022-12-07T07:26:33;4.10;99.90
20670;DHT22;10494;50.868;4.180;2022-12-07T07:28:59;4.10;99.90
20670;DHT22;10494;50.868;4.180;2022-12-07T07:31:24;4.20;99.90
20670;DHT22;10494;50.868;4.180;2022-12-07T07:33:50;4.30;99.90
20670;DHT22;10494;50.868;4.180;2022-12-07T07:36:15;4.30;99.90
20670;DHT22;10494;50.868;4.180;2022-12-07T07:38:41;4.40;99.90
20670;DHT22;10494;50.868;4.180;2022-12-07T07:41:06;4.40;99.90
20670;DHT22;10494;50.868;4.180;2022-12-07T07:43:32;4.40;99.90
20670;DHT22;10494;50.868;4.180;2022-12-07T07:45:58;4.40;99.90
20670;DHT22;10494;50.868;4.180;2022-12-07T07:48:23;4.40;99.90
20670;DHT22;10494;50.868;4.180;2022-12-07T07:50:50;4.50;99.90
20670;DHT22;10494;50.868;4.180;2022-12-07T07:53:16;4.60;99.90
20670;DHT22;10494;50.868;4.180;2022-12-07T07:55:49;4.50;99.90
20670;DHT22;10494;50.868;4.180;2022-12-07T07:58:15;4.70;99.90
20670;DHT22;10494;50.868;4.180;2022-12-07T08:00:40;4.50;99.90
20670;DHT22;10494;50.868;4.180;2022-12-07T08:03:06;4.30;99.90
20670;DHT22;10494;50.868;4.180;2022-12-07T08:05:31;4.30;99.90
20670;DHT22;10494;50.868;4.180;2022-12-07T08:07:57;4.30;99.90
20670;DHT22;10494;50.868;4.180;2022-12-07T08:10:23;4.40;99.90
20670;DHT22;10494;50.868;4.180;2022-12-07T08:12:48;4.40;99.90
20670;DHT22;10494;50.868;4.180;2022-12-07T08:15:32;4.40;99.90
20670;DHT22;10494;50.868;4.180;2022-12-07T08:17:58;4.50;99.90
20670;DHT22;10494;50.868;4.180;2022-12-07T08:20:24;4.50;99.90
20670;DHT22;10494;50.868;4.180;2022-12-07T08:22:50;4.50;99.90
20670;DHT22;10494;50.868;4.180;2022-12-07T08:25:15;4.60;99.90
20670;DHT22;10494;50.868;4.180;2022-12-07T08:27:41;4.70;99.90
20670;DHT22;10494;50.868;4.180;2022-12-07T08:30:07;5.00;99.90
20670;DHT22;10494;50.868;4.180;2022-12-07T08:32:33;5.50;99.90
20670;DHT22;10494;50.868;4.180;2022-12-07T08:34:58;6.10;99.90
20670;DHT22;10494;50.868;4.180;2022-12-07T08:37:24;6.60;99.90
20670;DHT22;10494;50.868;4.180;2022-12-07T08:39:49;7.20;99.90
20670;DHT22;10494;50.868;4.180;2022-12-07T08:42:15;7.50;99.90
20670;DHT22;10494;50.868;4.180;2022-12-07T08:44:40;7.50;99.90
20670;DHT22;10494;50.868;4.180;2022-12-07T08:47:06;7.80;99.90
20670;DHT22;10494;50.868;4.180;2022-12-07T08:49:43;8.00;99.90
20670;DHT22;10494;50.868;4.180;2022-12-07T08:52:09;8.00;99.90
20670;DHT22;10494;50.868;4.180;2022-12-07T08:54:36;7.70;99.90
20670;DHT22;10494;50.868;4.180;2022-12-07T08:57:04;7.50;99.90
20670;DHT22;10494;50.868;4.180;2022-12-07T08:59:33;7.30;99.90
20670;DHT22;10494;50.868;4.180;2022-12-07T09:01:59;7.20;99.90
20670;DHT22;10494;50.868;4.180;2022-12-07T09:04:25;7.20;99.90
20670;DHT22;10494;50.868;4.180;2022-12-07T09:06:51;7.20;99.90
20670;DHT22;10494;50.868;4.180;2022-12-07T09:09:17;7.20;99.90
20670;DHT22;10494;50.868;4.180;2022-12-07T09:11:42;7.30;99.90
20670;DHT22;10494;50.868;4.180;2022-12-07T09:14:10;7.50;99.90
20670;DHT22;10494;50.868;4.180;2022-12-07T09:16:37;7.40;99.90
20670;DHT22;10494;50.868;4.180;2022-12-07T09:19:03;7.30;99.90
20670;DHT22;10494;50.868;4.180;2022-12-07T09:21:29;7.50;99.90
20670;DHT22;10494;50.868;4.180;2022-12-07T09:23:54;7.80;99.90
20670;DHT22;10494;50.868;4.180;2022-12-07T09:26:20;8.30;99.90
20670;DHT22;10494;50.868;4.180;2022-12-07T09:28:45;8.90;99.90
20670;DHT22;10494;50.868;4.180;2022-12-07T09:31:11;9.40;99.90
20670;DHT22;10494;50.868;4.180;2022-12-07T09:33:36;9.90;99.90
20670;DHT22;10494;50.868;4.180;2022-12-07T09:36:03;10.00;99.90
20670;DHT22;10494;50.868;4.180;2022-12-07T09:38:29;9.90;99.90
20670;DHT22;10494;50.868;4.180;2022-12-07T09:40:55;9.70;99.90
20670;DHT22;10494;50.868;4.180;2022-12-07T09:43:25;9.50;99.90
20670;DHT22;10494;50.868;4.180;2022-12-07T09:45:52;9.50;99.90
20670;DHT22;10494;50.868;4.180;2022-12-07T09:48:39;9.50;99.90
20670;DHT22;10494;50.868;4.180;2022-12-07T09:51:23;9.60;99.90
20670;DHT22;10494;50.868;4.180;2022-12-07T09:53:50;9.30;99.90
20670;DHT22;10494;50.868;4.180;2022-12-07T09:56:17;9.00;99.90
20670;DHT22;10494;50.868;4.180;2022-12-07T09:58:44;9.10;99.90
20670;DHT22;10494;50.868;4.180;2022-12-07T10:01:15;8.90;99.90
20670;DHT22;10494;50.868;4.180;2022-12-07T10:04:25;8.80;99.90
20670;DHT22;10494;50.868;4.180;2022-12-07T10:06:51;8.80;99.90
20670;DHT22;10494;50.868;4.180;2022-12-07T10:09:19;8.60;99.90
20670;DHT22;10494;50.868;4.180;2022-12-07T10:12:18;8.80;99.90
20670;DHT22;10494;50.868;4.180;2022-12-07T10:15:00;8.70;99.90
20670;DHT22;10494;50.868;4.180;2022-12-07T10:17:39;8.70;99.90
20670;DHT22;10494;50.868;4.180;2022-12-07T10:20:14;8.70;99.90
20670;DHT22;10494;50.868;4.180;2022-12-07T10:23:01;8.80;99.90
20670;DHT22;10494;50.868;4.180;2022-12-07T10:25:33;8.90;99.90
20670;DHT22;10494;50.868;4.180;2022-12-07T10:28:01;8.90;99.90
20670;DHT22;10494;50.868;4.180;2022-12-07T10:30:28;8.60;99.90
20670;DHT22;10494;50.868;4.180;2022-12-07T10:32:53;8.50;99.90
20670;DHT22;10494;50.868;4.180;2022-12-07T10:35:42;8.40;99.90
20670;DHT22;10494;50.868;4.180;2022-12-07T10:38:16;8.30;99.90
20670;DHT22;10494;50.868;4.180;2022-12-07T10:40:42;8.20;99.90
20670;DHT22;10494;50.868;4.180;2022-12-07T10:48:25;8.20;99.90
20670;DHT22;10494;50.868;4.180;2022-12-07T10:51:12;8.10;99.90
20670;DHT22;10494;50.868;4.180;2022-12-07T10:53:55;8.30;99.90
20670;DHT22;10494;50.868;4.180;2022-12-07T11:07:41;8.50;99.90
20670;DHT22;10494;50.868;4.180;2022-12-07T11:18:32;8.20;99.90
20670;DHT22;10494;50.868;4.180;2022-12-07T11:31:43;7.70;99.90
20670;DHT22;10494;50.868;4.180;2022-12-07T11:36:51;7.50;99.90
20670;DHT22;10494;50.868;4.180;2022-12-07T11:41:55;7.50;99.90
20670;DHT22;10494;50.868;4.180;2022-12-07T11:44:49;7.50;99.90
20670;DHT22;10494;50.868;4.180;2022-12-07T11:50:27;7.60;99.90
20670;DHT22;10494;50.868;4.180;2022-12-07T11:53:17;7.70;99.90
20670;DHT22;10494;50.868;4.180;2022-12-07T11:58:48;8.50;99.90
20670;DHT22;10494;50.868;4.180;2022-12-07T12:06:29;9.00;99.90
20670;DHT22;10494;50.868;4.180;2022-12-07T12:09:02;8.90;99.90
20670;DHT22;10494;50.868;4.180;2022-12-07T12:11:56;8.70;99.90
20670;DHT22;10494;50.868;4.180;2022-12-07T12:17:50;8.40;99.90
20670;DHT22;10494;50.868;4.180;2022-12-07T12:20:29;8.40;99.90
20670;DHT22;10494;50.868;4.180;2022-12-07T12:23:12;8.50;99.90
20670;DHT22;10494;50.868;4.180;2022-12-07T12:25:47;8.40;99.90
20670;DHT22;10494;50.868;4.180;2022-12-07T12:33:58;8.30;99.90
20670;DHT22;10494;50.868;4.180;2022-12-07T12:39:19;8.40;99.90
20670;DHT22;10494;50.868;4.180;2022-12-07T12:47:00;8.50;99.90
20670;DHT22;10494;50.868;4.180;2022-12-07T12:49:38;8.50;99.90
20670;DHT22;10494;50.868;4.180;2022-12-07T12:54:38;8.80;99.90
20670;DHT22;10494;50.868;4.180;2022-12-07T13:02:30;8.80;99.90
20670;DHT22;10494;50.868;4.180;2022-12-07T13:15:41;9.20;99.90
20670;DHT22;10494;50.868;4.180;2022-12-07T13:23:33;9.10;99.90
20670;DHT22;10494;50.868;4.180;2022-12-07T13:31:44;9.20;99.90
20670;DHT22;10494;50.868;4.180;2022-12-07T13:34:33;9.10;99.90
20670;DHT22;10494;50.868;4.180;2022-12-07T13:37:24;9.00;99.90
20670;DHT22;10494;50.868;4.180;2022-12-07T13:39:51;9.00;99.90
20670;DHT22;10494;50.868;4.180;2022-12-07T13:42:32;8.90;99.90
20670;DHT22;10494;50.868;4.180;2022-12-07T13:44:59;8.90;99.90
20670;DHT22;10494;50.868;4.180;2022-12-07T13:47:33;8.90;99.90
20670;DHT22;10494;50.868;4.180;2022-12-07T13:50:01;8.90;99.90
20670;DHT22;10494;50.868;4.180;2022-12-07T13:52:29;9.20;99.90
20670;DHT22;10494;50.868;4.180;2022-12-07T13:57:29;9.10;99.90
20670;DHT22;10494;50.868;4.180;2022-12-07T13:59:56;9.10;99.90
20670;DHT22;10494;50.868;4.180;2022-12-07T14:02:29;8.90;99.90
20670;DHT22;10494;50.868;4.180;2022-12-07T14:05:22;8.80;99.90
20670;DHT22;10494;50.868;4.180;2022-12-07T14:11:00;8.70;99.90
20670;DHT22;10494;50.868;4.180;2022-12-07T14:15:57;8.80;99.90
20670;DHT22;10494;50.868;4.180;2022-12-07T14:18:36;8.90;99.90
20670;DHT22;10494;50.868;4.180;2022-12-07T14:21:23;8.70;99.90
20670;DHT22;10494;50.868;4.180;2022-12-07T14:24:11;7.40;99.90
20670;DHT22;10494;50.868;4.180;2022-12-07T14:26:38;6.50;99.90
20670;DHT22;10494;50.868;4.180;2022-12-07T14:31:57;6.30;99.90
20670;DHT22;10494;50.868;4.180;2022-12-07T14:34:24;6.20;99.90
20670;DHT22;10494;50.868;4.180;2022-12-07T14:36:50;6.00;99.90
20670;DHT22;10494;50.868;4.180;2022-12-07T14:39:16;6.00;99.90
20670;DHT22;10494;50.868;4.180;2022-12-07T14:41:42;6.20;99.90
20670;DHT22;10494;50.868;4.180;2022-12-07T14:44:21;6.50;99.90
20670;DHT22;10494;50.868;4.180;2022-12-07T14:46:49;6.60;99.90
20670;DHT22;10494;50.868;4.180;2022-12-07T14:49:14;6.90;99.90
20670;DHT22;10494;50.868;4.180;2022-12-07T14:51:41;7.00;99.90
20670;DHT22;10494;50.868;4.180;2022-12-07T14:54:18;7.00;99.90
20670;DHT22;10494;50.868;4.180;2022-12-07T14:56:44;6.80;99.90
20670;DHT22;10494;50.868;4.180;2022-12-07T14:59:11;6.80;99.90
20670;DHT22;10494;50.868;4.180;2022-12-07T15:01:37;6.90;99.90
20670;DHT22;10494;50.868;4.180;2022-12-07T15:04:03;6.70;99.90
20670;DHT22;10494;50.868;4.180;2022-12-07T15:06:29;6.40;99.90
20670;DHT22;10494;50.868;4.180;2022-12-07T15:08:54;6.40;99.90
20670;DHT22;10494;50.868;4.180;2022-12-07T15:11:20;6.50;99.90
20670;DHT22;10494;50.868;4.180;2022-12-07T15:13:46;6.60;99.90
20670;DHT22;10494;50.868;4.180;2022-12-07T15:16:30;6.50;99.90
20670;DHT22;10494;50.868;4.180;2022-12-07T15:18:56;6.30;99.90
20670;DHT22;10494;50.868;4.180;2022-12-07T15:21:22;6.50;99.90
20670;DHT22;10494;50.868;4.180;2022-12-07T15:23:48;6.60;99.90
20670;DHT22;10494;50.868;4.180;2022-12-07T15:26:13;6.70;99.90
20670;DHT22;10494;50.868;4.180;2022-12-07T15:28:40;6.90;99.90
20670;DHT22;10494;50.868;4.180;2022-12-07T15:31:16;6.90;99.90
20670;DHT22;10494;50.868;4.180;2022-12-07T15:33:42;7.00;99.90
20670;DHT22;10494;50.868;4.180;2022-12-07T15:36:19;6.90;99.90
20670;DHT22;10494;50.868;4.180;2022-12-07T15:38:46;6.90;99.90
20670;DHT22;10494;50.868;4.180;2022-12-07T15:41:11;6.80;99.90
20670;DHT22;10494;50.868;4.180;2022-12-07T15:43:37;6.70;99.90
20670;DHT22;10494;50.868;4.180;2022-12-07T15:46:21;6.80;99.90
20670;DHT22;10494;50.868;4.180;2022-12-07T15:48:46;6.90;99.90
20670;DHT22;10494;50.868;4.180;2022-12-07T15:51:12;6.90;99.90
20670;DHT22;10494;50.868;4.180;2022-12-07T15:53:38;6.90;99.90
20670;DHT22;10494;50.868;4.180;2022-12-07T15:56:07;7.00;99.90
20670;DHT22;10494;50.868;4.180;2022-12-07T15:58:34;6.80;99.90
20670;DHT22;10494;50.868;4.180;2022-12-07T16:01:00;6.70;99.90
20670;DHT22;10494;50.868;4.180;2022-12-07T16:03:27;6.70;99.90
20670;DHT22;10494;50.868;4.180;2022-12-07T16:05:53;6.70;99.90
20670;DHT22;10494;50.868;4.180;2022-12-07T16:08:18;6.60;99.90
20670;DHT22;10494;50.868;4.180;2022-12-07T16:10:44;6.60;99.90
20670;DHT22;10494;50.868;4.180;2022-12-07T16:13:10;6.60;99.90
20670;DHT22;10494;50.868;4.180;2022-12-07T16:15:40;6.60;99.90
20670;DHT22;10494;50.868;4.180;2022-12-07T16:18:06;6.60;99.90
20670;DHT22;10494;50.868;4.180;2022-12-07T16:20:31;6.60;99.90
20670;DHT22;10494;50.868;4.180;2022-12-07T16:22:58;6.50;99.90
20670;DHT22;10494;50.868;4.180;2022-12-07T16:25:23;6.50;99.90
20670;DHT22;10494;50.868;4.180;2022-12-07T16:27:49;6.60;99.90
20670;DHT22;10494;50.868;4.180;2022-12-07T16:30:15;6.60;99.90
20670;DHT22;10494;50.868;4.180;2022-12-07T16:32:42;6.60;99.90
20670;DHT22;10494;50.868;4.180;2022-12-07T16:35:08;6.60;99.90
20670;DHT22;10494;50.868;4.180;2022-12-07T16:37:34;6.60;99.90
20670;DHT22;10494;50.868;4.180;2022-12-07T16:39:59;6.70;99.90
20670;DHT22;10494;50.868;4.180;2022-12-07T16:42:25;6.70;99.90
20670;DHT22;10494;50.868;4.180;2022-12-07T16:44:51;6.60;99.90
20670;DHT22;10494;50.868;4.180;2022-12-07T16:47:17;6.60;99.90
20670;DHT22;10494;50.868;4.180;2022-12-07T16:49:43;6.50;99.90
20670;DHT22;10494;50.868;4.180;2022-12-07T16:52:08;6.50;99.90
20670;DHT22;10494;50.868;4.180;2022-12-07T16:54:35;6.50;99.90
20670;DHT22;10494;50.868;4.180;2022-12-07T16:57:01;6.60;99.90
20670;DHT22;10494;50.868;4.180;2022-12-07T16:59:27;6.50;99.90
20670;DHT22;10494;50.868;4.180;2022-12-07T17:01:52;6.50;99.90
20670;DHT22;10494;50.868;4.180;2022-12-07T17:04:18;6.50;99.90
20670;DHT22;10494;50.868;4.180;2022-12-07T17:06:43;6.50;99.90
20670;DHT22;10494;50.868;4.180;2022-12-07T17:09:09;6.50;99.90
20670;DHT22;10494;50.868;4.180;2022-12-07T17:11:37;6.30;99.90
20670;DHT22;10494;50.868;4.180;2022-12-07T17:14:03;5.90;99.90
20670;DHT22;10494;50.868;4.180;2022-12-07T17:16:47;5.60;99.90
20670;DHT22;10494;50.868;4.180;2022-12-07T17:19:14;5.50;99.90
20670;DHT22;10494;50.868;4.180;2022-12-07T17:21:40;5.70;99.90
20670;DHT22;10494;50.868;4.180;2022-12-07T17:24:08;5.90;99.90
20670;DHT22;10494;50.868;4.180;2022-12-07T17:26:34;6.10;99.90
20670;DHT22;10494;50.868;4.180;2022-12-07T17:29:01;6.10;99.90
20670;DHT22;10494;50.868;4.180;2022-12-07T17:31:26;6.20;99.90
20670;DHT22;10494;50.868;4.180;2022-12-07T17:33:52;6.20;99.90
20670;DHT22;10494;50.868;4.180;2022-12-07T17:36:21;6.40;99.90
20670;DHT22;10494;50.868;4.180;2022-12-07T17:38:49;6.50;99.90
20670;DHT22;10494;50.868;4.180;2022-12-07T17:41:17;6.50;99.90
20670;DHT22;10494;50.868;4.180;2022-12-07T17:44:02;6.50;99.90
20670;DHT22;10494;50.868;4.180;2022-12-07T17:46:29;6.40;99.90
20670;DHT22;10494;50.868;4.180;2022-12-07T17:48:55;6.40;99.90
20670;DHT22;10494;50.868;4.180;2022-12-07T17:51:21;6.50;99.90
20670;DHT22;10494;50.868;4.180;2022-12-07T17:54:05;6.40;99.90
20670;DHT22;10494;50.868;4.180;2022-12-07T17:56:30;6.30;99.90
20670;DHT22;10494;50.868;4.180;2022-12-07T17:58:56;6.30;99.90
20670;DHT22;10494;50.868;4.180;2022-12-07T18:01:22;6.20;99.90
20670;DHT22;10494;50.868;4.180;2022-12-07T18:03:47;6.10;99.90
20670;DHT22;10494;50.868;4.180;2022-12-07T18:06:13;6.10;99.90
20670;DHT22;10494;50.868;4.180;2022-12-07T18:08:38;6.10;99.90
20670;DHT22;10494;50.868;4.180;2022-12-07T18:11:05;6.00;99.90
20670;DHT22;10494;50.868;4.180;2022-12-07T18:13:32;6.00;99.90
20670;DHT22;10494;50.868;4.180;2022-12-07T18:16:04;6.00;99.90
20670;DHT22;10494;50.868;4.180;2022-12-07T18:18:30;6.10;99.90
20670;DHT22;10494;50.868;4.180;2022-12-07T18:20:56;6.10;99.90